Time;durP1;ratioP1;P1;durP2;ratioP2;P2;SDS_P1;SDS_P2;PMS_P1;PMS_P2;Temp;Humidity;BMP_temperature;BMP_pressure;BME280_temperature;BME280_humidity;BME280_pressure;Samples;Min_cycle;Max_cycle;Signal;HPM_P1;HPM_P2
2022/01/14 00:01:40;;;;;;;;;;;;;;;4.39;100.00;102294.22;5031792;28;1907;-74
2022/01/14 00:04:07;;;;;;;;;;;;;;;4.39;100.00;102303.16;5029426;28;2119;-75
2022/01/14 00:06:33;;;;;;;;;;;;;;;4.39;100.00;102300.47;5032515;28;1122;-76
2022/01/14 00:09:06;;;;;;;;;;;;;;;4.43;100.00;102298.56;5030976;28;1397;-73
2022/01/14 00:11:32;;;;;;;;;;;;;;;4.41;100.00;102285.19;5030896;28;888;-74
2022/01/14 00:14:09;;;;;;;;;;;;;;;4.41;100.00;102304.00;5031829;28;950;-75
2022/01/14 00:16:35;;;;;;;;;;;;;;;4.42;100.00;102299.50;5031765;28;928;-74
2022/01/14 00:19:01;;;;;;;;;;;;;;;4.41;100.00;102295.94;5031858;28;1352;-74
2022/01/14 00:21:29;;;;;;;;;;;;;;;4.43;100.00;102296.75;5031449;28;1914;-73
2022/01/14 00:24:06;;;;;;;;;;;;;;;4.43;100.00;102304.81;5031682;28;987;-75
2022/01/14 00:32:08;;;;;;;;;;;;;;;4.45;100.00;102308.34;5030453;28;1065;-73
2022/01/14 00:34:34;;;;;;;;;;;;;;;4.47;100.00;102311.88;5031741;28;971;-73
2022/01/14 00:37:01;;;;;;;;;;;;;;;4.48;100.00;102312.75;5030027;28;1120;-73
2022/01/14 00:39:27;;;;;;;;;;;;;;;4.50;100.00;102318.97;5031058;28;1395;-74
2022/01/14 00:41:55;;;;;;;;;;;;;;;4.48;100.00;102312.75;5031249;28;1966;-74
2022/01/14 00:44:21;;;;;;;;;;;;;;;4.49;100.00;102314.50;5029717;28;892;-74
2022/01/14 00:46:48;;;;;;;;;;;;;;;4.51;100.00;102310.84;5030887;28;1283;-76
2022/01/14 00:49:15;;;;;;;;;;;;;;;4.53;100.00;102314.38;5033030;28;1336;-76
2022/01/14 00:51:42;;;;;;;;;;;;;;;4.52;100.00;102318.00;5033361;28;1138;-76
2022/01/14 00:54:09;;;;;;;;;;;;;;;4.51;100.00;102313.53;5032189;28;1048;-73
2022/01/14 00:56:47;;;;;;;;;;;;;;;4.50;100.00;102311.78;5031360;28;987;-75
2022/01/14 00:59:15;;;;;;;;;;;;;;;4.53;100.00;102311.69;5031020;28;1325;-73
2022/01/14 01:01:42;;;;;;;;;;;;;;;4.51;100.00;102310.84;5031345;28;1914;-75
2022/01/14 01:04:09;;;;;;;;;;;;;;;4.55;100.00;102314.31;5030401;28;805;-75
2022/01/14 01:06:35;;;;;;;;;;;;;;;4.52;100.00;102299.16;5030994;28;809;-74
2022/01/14 01:09:02;;;;;;;;;;;;;;;4.52;100.00;102304.53;5031145;28;1298;-75
2022/01/14 01:11:33;;;;;;;;;;;;;;;4.55;100.00;102302.69;5030884;28;990;-75
2022/01/14 01:14:05;;;;;;;;;;;;;;;4.56;100.00;102297.28;5030687;28;1145;-75
2022/01/14 01:16:33;;;;;;;;;;;;;;;4.55;100.00;102298.19;5029494;28;924;-75
2022/01/14 01:18:59;;;;;;;;;;;;;;;4.55;100.00;102291.94;5031131;28;1302;-74
2022/01/14 01:21:25;;;;;;;;;;;;;;;4.55;100.00;102298.19;5030942;28;1983;-73
2022/01/14 01:23:52;;;;;;;;;;;;;;;4.56;100.00;102299.06;5031057;28;915;-74
2022/01/14 01:26:25;;;;;;;;;;;;;;;4.57;100.00;102296.34;5030826;28;971;-74
2022/01/14 01:29:01;;;;;;;;;;;;;;;4.59;100.00;102299.84;5031031;28;1399;-74
2022/01/14 01:31:38;;;;;;;;;;;;;;;4.61;100.00;102305.19;5029780;28;851;-75
2022/01/14 01:34:06;;;;;;;;;;;;;;;4.60;100.00;102306.13;5030907;28;995;-75
2022/01/14 01:36:32;;;;;;;;;;;;;;;4.62;100.00;102293.50;5030647;28;855;-73
2022/01/14 01:38:59;;;;;;;;;;;;;;;4.62;100.00;102296.19;5031180;28;1310;-75
2022/01/14 01:41:25;;;;;;;;;;;;;;;4.64;100.00;102295.22;5031212;28;1914;-73
2022/01/14 01:43:54;;;;;;;;;;;;;;;4.61;100.00;102283.66;5030860;28;961;-74
2022/01/14 01:46:21;;;;;;;;;;;;;;;4.63;100.00;102287.19;5031812;28;1064;-75
2022/01/14 01:48:47;;;;;;;;;;;;;;;4.61;100.00;102284.56;5031185;28;1326;-74
2022/01/14 01:51:15;;;;;;;;;;;;;;;4.60;100.00;102282.78;5029305;28;1245;-73
2022/01/14 01:53:42;;;;;;;;;;;;;;;4.62;100.00;102296.19;5030477;28;930;-75
2022/01/14 01:56:08;;;;;;;;;;;;;;;4.62;100.00;102297.09;5031250;28;991;-73
2022/01/14 01:58:34;;;;;;;;;;;;;;;4.61;100.00;102289.94;5036641;28;828;-74
2022/01/14 02:01:03;;;;;;;;;;;;;;;4.59;100.00;102291.78;5036568;28;1906;-75
2022/01/14 02:03:29;;;;;;;;;;;;;;;4.62;100.00;102291.72;5036142;28;1535;-72
2022/01/14 02:05:56;;;;;;;;;;;;;;;4.63;100.00;102284.50;5034127;28;1508;-74
2022/01/14 02:08:23;;;;;;;;;;;;;;;4.59;100.00;102283.72;5033087;28;1065;-72
2022/01/14 02:10:50;;;;;;;;;;;;;;;4.61;100.00;102286.34;5032948;28;1372;-74
2022/01/14 02:13:16;;;;;;;;;;;;;;;4.62;100.00;102274.66;5034029;28;1389;-74
2022/01/14 02:15:49;;;;;;;;;;;;;;;4.62;100.00;102278.25;5034186;28;1042;-73
2022/01/14 02:18:37;;;;;;;;;;;;;;;4.65;100.00;102278.16;5034633;28;991;-74
2022/01/14 02:23:53;;;;;;;;;;;;;;;4.63;100.00;102273.75;5034035;28;1062;-73
2022/01/14 02:26:20;;;;;;;;;;;;;;;4.63;100.00;102269.22;5035786;28;954;-75
2022/01/14 02:28:47;;;;;;;;;;;;;;;4.63;100.00;102271.06;5035968;28;1385;-73
2022/01/14 02:31:13;;;;;;;;;;;;;;;4.64;100.00;102272.81;5035231;28;682;-75
2022/01/14 02:33:39;;;;;;;;;;;;;;;4.63;100.00;102268.38;5033796;28;1120;-73
2022/01/14 02:36:07;;;;;;;;;;;;;;;4.62;100.00;102258.53;5033396;28;1065;-73
2022/01/14 02:38:34;;;;;;;;;;;;;;;4.61;100.00;102252.28;5035332;28;813;-75
2022/01/14 02:41:00;;;;;;;;;;;;;;;4.66;100.00;102252.13;5032549;28;1914;-73
2022/01/14 02:43:27;;;;;;;;;;;;;;;4.64;100.00;102240.53;5034180;28;927;-75
2022/01/14 02:45:55;;;;;;;;;;;;;;;4.62;100.00;102228.94;5033577;28;1027;-72
2022/01/14 02:48:23;;;;;;;;;;;;;;;4.61;100.00;102230.75;5033688;28;793;-75
2022/01/14 02:50:59;;;;;;;;;;;;;;;4.61;100.00;102237.94;5032462;28;1262;-73
2022/01/14 02:53:30;;;;;;;;;;;;;;;4.58;100.00;102222.78;5033735;28;856;-74
2022/01/14 02:55:57;;;;;;;;;;;;;;;4.55;100.00;102220.19;5033453;28;971;-74
2022/01/14 02:58:25;;;;;;;;;;;;;;;4.56;100.00;102221.06;5033594;28;968;-73
2022/01/14 03:00:52;;;;;;;;;;;;;;;4.56;100.00;102218.38;5032297;28;1988;-75
2022/01/14 03:03:22;;;;;;;;;;;;;;;4.57;100.00;102217.44;5033596;28;1003;-72
2022/01/14 03:05:49;;;;;;;;;;;;;;;4.59;100.00;102221.84;5031474;28;1031;-75
2022/01/14 03:08:15;;;;;;;;;;;;;;;4.53;100.00;102219.38;5033368;28;1041;-74
2022/01/14 03:10:43;;;;;;;;;;;;;;;4.53;100.00;102212.19;5049219;22;3483;-75
2022/01/14 03:13:10;;;;;;;;;;;;;;;4.55;100.00;102216.63;5032287;28;1042;-74
2022/01/14 03:15:36;;;;;;;;;;;;;;;4.56;100.00;102219.28;5032218;28;757;-74
2022/01/14 03:18:02;;;;;;;;;;;;;;;4.51;100.00;102214.03;5032008;28;716;-71
2022/01/14 03:23:11;;;;;;;;;;;;;;;4.46;100.00;102202.56;5011620;28;1213;-72
2022/01/14 03:25:48;;;;;;;;;;;;;;;4.41;100.00;102187.47;5031842;28;919;-69
2022/01/14 03:28:16;;;;;;;;;;;;;;;4.39;100.00;102189.34;5032073;28;911;-73
2022/01/14 03:30:42;;;;;;;;;;;;;;;4.39;100.00;102187.53;5031814;28;1280;-72
2022/01/14 03:33:08;;;;;;;;;;;;;;;4.36;100.00;102193.88;5032693;28;982;-73
2022/01/14 03:35:35;;;;;;;;;;;;;;;4.34;100.00;102190.38;5031762;28;1046;-70
2022/01/14 03:38:01;;;;;;;;;;;;;;;4.32;100.00;102188.66;5013586;28;1061;-72
2022/01/14 03:40:27;;;;;;;;;;;;;;;4.34;100.00;102184.09;5013704;28;1414;-71
2022/01/14 03:42:53;;;;;;;;;;;;;;;4.32;100.00;102183.28;5031649;28;1975;-75
2022/01/14 03:45:21;;;;;;;;;;;;;;;4.29;100.00;102178.88;5031911;28;796;-74
2022/01/14 03:47:47;;;;;;;;;;;;;;;4.26;100.00;102179.00;5031541;28;1238;-74
2022/01/14 03:50:14;;;;;;;;;;;;;;;4.22;100.00;102173.75;5031617;28;1337;-73
2022/01/14 03:52:40;;;;;;;;;;;;;;;4.19;100.00;102172.91;5031614;28;845;-73
2022/01/14 03:55:07;;;;;;;;;;;;;;;4.19;100.00;102172.91;5031497;28;745;-75
2022/01/14 03:57:33;;;;;;;;;;;;;;;4.15;100.00;102162.31;5031009;28;793;-75
2022/01/14 03:59:59;;;;;;;;;;;;;;;4.14;100.00;102164.13;5013651;28;1441;-72
2022/01/14 04:02:27;;;;;;;;;;;;;;;4.13;100.00;102161.47;5031378;28;1927;-71
2022/01/14 04:04:54;;;;;;;;;;;;;;;4.11;100.00;102166.03;5031204;28;904;-70
2022/01/14 04:07:20;;;;;;;;;;;;;;;4.10;100.00;102167.84;4996807;28;1597;-70
2022/01/14 04:09:46;;;;;;;;;;;;;;;4.10;100.00;102165.16;5031015;28;1286;-71
2022/01/14 04:12:17;;;;;;;;;;;;;;;4.10;100.00;102161.56;5031022;28;856;-71
2022/01/14 04:17:31;;;;;;;;;;;;;;;4.05;100.00;102155.44;5013257;28;1124;-72
2022/01/14 04:19:58;;;;;;;;;;;;;;;4.01;100.00;102146.63;5030378;28;1363;-73
2022/01/14 04:22:24;;;;;;;;;;;;;;;3.99;100.00;102152.03;5013195;28;1915;-72
2022/01/14 04:24:50;;;;;;;;;;;;;;;3.99;100.00;102145.78;5030761;28;956;-72
2022/01/14 04:27:16;;;;;;;;;;;;;;;3.97;100.00;102144.97;5030491;28;1019;-73
2022/01/14 04:29:43;;;;;;;;;;;;;;;3.96;100.00;102144.06;5031019;28;1348;-73
2022/01/14 04:32:09;;;;;;;;;;;;;;;3.96;100.00;102148.56;5031075;28;757;-71
2022/01/14 04:34:36;;;;;;;;;;;;;;;3.96;100.00;102143.19;5030360;28;927;-71
2022/01/14 04:37:03;;;;;;;;;;;;;;;3.96;100.00;102148.56;5012625;28;995;-71
2022/01/14 04:39:29;;;;;;;;;;;;;;;3.97;100.00;102139.59;5030926;28;908;-72
2022/01/14 04:41:55;;;;;;;;;;;;;;;3.96;100.00;102141.38;5030393;28;1930;-72
2022/01/14 04:44:21;;;;;;;;;;;;;;;3.96;100.00;102132.44;5030764;28;1028;-73
2022/01/14 04:47:01;;;;;;;;;;;;;;;3.97;100.00;102134.22;5030420;28;1034;-72
2022/01/14 04:49:27;;;;;;;;;;;;;;;3.95;100.00;102138.75;5030751;28;824;-74
2022/01/14 04:51:56;;;;;;;;;;;;;;;3.94;100.00;102134.28;5029972;28;1334;-73
2022/01/14 04:54:22;;;;;;;;;;;;;;;3.97;100.00;102134.22;5030412;28;800;-73
2022/01/14 04:56:48;;;;;;;;;;;;;;;3.94;100.00;102123.53;5030115;28;994;-72
2022/01/14 04:59:15;;;;;;;;;;;;;;;3.95;100.00;102106.50;5030372;28;785;-72
2022/01/14 05:01:42;;;;;;;;;;;;;;;3.93;100.00;102117.31;5030187;28;1910;-72
2022/01/14 05:04:08;;;;;;;;;;;;;;;3.94;100.00;102118.16;5030235;28;770;-73
2022/01/14 05:06:34;;;;;;;;;;;;;;;3.93;100.00;102119.09;5029925;28;1067;-73
2022/01/14 05:09:06;;;;;;;;;;;;;;;3.95;100.00;102117.25;5029996;28;971;-74
2022/01/14 05:11:39;;;;;;;;;;;;;;;3.96;100.00;102121.69;5030063;28;1424;-72
2022/01/14 05:14:05;;;;;;;;;;;;;;;3.97;100.00;102131.53;5030064;28;1045;-71
2022/01/14 05:16:32;;;;;;;;;;;;;;;3.98;100.00;102127.88;5030173;28;813;-70
2022/01/14 05:18:58;;;;;;;;;;;;;;;3.98;100.00;102122.53;5012474;28;958;-73
2022/01/14 05:21:24;;;;;;;;;;;;;;;3.97;100.00;102120.78;5029894;28;1910;-73
2022/01/14 05:23:50;;;;;;;;;;;;;;;3.96;100.00;102116.34;5030018;28;1003;-71
2022/01/14 05:26:18;;;;;;;;;;;;;;;3.95;100.00;102120.81;5030166;28;1078;-72
2022/01/14 05:28:44;;;;;;;;;;;;;;;3.97;100.00;102113.59;5029944;28;982;-73
2022/01/14 05:31:10;;;;;;;;;;;;;;;3.97;100.00;102107.34;5012645;28;1265;-73
2022/01/14 05:33:39;;;;;;;;;;;;;;;4.01;100.00;102109.88;5016426;28;1335;-73
2022/01/14 05:36:05;;;;;;;;;;;;;;;4.00;100.00;102116.16;5033775;28;962;-72
2022/01/14 05:38:32;;;;;;;;;;;;;;;4.00;100.00;102115.31;5034216;28;991;-73
2022/01/14 05:40:58;;;;;;;;;;;;;;;4.02;100.00;102110.75;5015936;28;1363;-73
2022/01/14 05:43:26;;;;;;;;;;;;;;;4.00;100.00;102107.25;5016178;28;1986;-73
2022/01/14 05:45:52;;;;;;;;;;;;;;;4.04;100.00;102113.41;5033517;28;944;-72
2022/01/14 05:48:18;;;;;;;;;;;;;;;4.02;100.00;102110.75;5033775;28;908;-72
2022/01/14 05:50:44;;;;;;;;;;;;;;;4.04;100.00;102108.03;4999815;28;1406;-73
2022/01/14 05:53:11;;;;;;;;;;;;;;;4.04;100.00;102108.03;5032339;28;1086;-74
2022/01/14 05:55:37;;;;;;;;;;;;;;;4.08;100.00;102105.19;5033408;28;801;-73
2022/01/14 05:58:03;;;;;;;;;;;;;;;4.09;100.00;102104.25;5015466;28;1304;-73
2022/01/14 06:00:31;;;;;;;;;;;;;;;4.08;100.00;102091.75;5032831;28;1392;-75
2022/01/14 06:02:57;;;;;;;;;;;;;;;4.09;100.00;102106.06;5033219;28;1926;-73
2022/01/14 06:05:23;;;;;;;;;;;;;;;4.08;100.00;102105.19;5033711;28;1498;-72
2022/01/14 06:07:50;;;;;;;;;;;;;;;4.11;100.00;102106.91;5033111;28;2055;-73
2022/01/14 06:10:16;;;;;;;;;;;;;;;4.11;100.00;102094.31;5032328;28;1420;-72
2022/01/14 06:12:42;;;;;;;;;;;;;;;4.11;100.00;102101.53;5024753;28;1364;-74
2022/01/14 06:15:09;;;;;;;;;;;;;;;4.11;100.00;102093.47;5039217;28;1574;-73
2022/01/14 06:17:37;;;;;;;;;;;;;;;4.12;100.00;102097.91;5019268;28;1284;-74
2022/01/14 06:20:03;;;;;;;;;;;;;;;4.13;100.00;102105.03;5032977;28;1476;-74
2022/01/14 06:22:30;;;;;;;;;;;;;;;4.14;100.00;102107.69;5016863;28;1911;-74
2022/01/14 06:24:57;;;;;;;;;;;;;;;4.14;100.00;102118.44;5019516;28;1460;-73
2022/01/14 06:27:23;;;;;;;;;;;;;;;4.16;100.00;102118.38;5017739;28;1324;-73
2022/01/14 06:29:49;;;;;;;;;;;;;;;4.20;100.00;102128.09;5045257;28;1378;-74
2022/01/14 06:32:16;;;;;;;;;;;;;;;4.20;100.00;102130.78;5031780;28;1684;-74
2022/01/14 06:34:43;;;;;;;;;;;;;;;4.23;100.00;102135.19;5032343;28;1455;-72
2022/01/14 06:37:10;;;;;;;;;;;;;;;4.24;100.00;102142.34;5032601;28;1494;-73
2022/01/14 06:39:36;;;;;;;;;;;;;;;4.23;100.00;102145.94;5032669;28;1447;-75
2022/01/14 06:42:02;;;;;;;;;;;;;;;4.27;100.00;102156.53;5031883;28;1902;-74
2022/01/14 06:44:28;;;;;;;;;;;;;;;4.27;100.00;102153.84;5032699;28;923;-73
2022/01/14 06:46:55;;;;;;;;;;;;;;;4.28;100.00;102141.31;5032034;28;1562;-75
2022/01/14 06:49:21;;;;;;;;;;;;;;;4.30;100.00;102144.81;5030303;28;1408;-72
2022/01/14 06:51:49;;;;;;;;;;;;;;;4.33;100.00;102137.53;5020436;28;1341;-73
2022/01/14 06:54:15;;;;;;;;;;;;;;;4.36;100.00;102134.72;5020980;28;888;-77
2022/01/14 06:56:41;;;;;;;;;;;;;;;4.36;100.00;102137.41;5030784;28;995;-75
2022/01/14 06:59:09;;;;;;;;;;;;;;;4.40;100.00;102130.16;5031548;28;1499;-74
2022/01/14 07:01:35;;;;;;;;;;;;;;;4.39;100.00;102109.56;5032196;28;1918;-73
2022/01/14 07:04:01;;;;;;;;;;;;;;;4.41;100.00;102098.75;5031933;28;1527;-73
2022/01/14 07:06:27;;;;;;;;;;;;;;;4.46;100.00;102086.03;5031891;28;729;-71
2022/01/14 07:08:55;;;;;;;;;;;;;;;4.46;100.00;102083.34;5031926;28;1550;-73
2022/01/14 07:11:25;;;;;;;;;;;;;;;4.48;100.00;102095.81;5013580;28;1380;-73
2022/01/14 07:13:51;;;;;;;;;;;;;;;4.49;100.00;102097.56;5031847;28;1498;-72
2022/01/14 07:16:18;;;;;;;;;;;;;;;4.51;100.00;102102.88;5014325;28;1156;-74
2022/01/14 07:18:46;;;;;;;;;;;;;;;4.51;100.00;102105.59;5014347;28;1504;-74
2022/01/14 07:21:12;;;;;;;;;;;;;;;4.52;100.00;102105.53;5026441;28;1495;-75
2022/01/14 07:23:38;;;;;;;;;;;;;;;4.54;100.00;102113.53;5031384;28;1979;-74
2022/01/14 07:26:06;;;;;;;;;;;;;;;4.55;100.00;102103.69;5031302;28;1627;-73
2022/01/14 07:28:32;;;;;;;;;;;;;;;4.57;100.00;102112.56;5013498;28;1535;-75
2022/01/14 07:30:58;;;;;;;;;;;;;;;4.55;100.00;102099.16;5031904;28;1242;-74
2022/01/14 07:33:25;;;;;;;;;;;;;;;4.55;100.00;102088.41;5031513;28;1467;-74
2022/01/14 07:35:51;;;;;;;;;;;;;;;4.57;100.00;102091.03;5011831;28;1172;-74
2022/01/14 07:38:17;;;;;;;;;;;;;;;4.59;100.00;102095.44;5031144;28;1360;-74
2022/01/14 07:40:44;;;;;;;;;;;;;;;4.55;100.00;102087.53;5031509;28;1322;-73
2022/01/14 07:43:11;;;;;;;;;;;;;;;4.59;100.00;102099.94;5031085;28;1910;-74
2022/01/14 07:45:37;;;;;;;;;;;;;;;4.59;100.00;102099.94;5030868;28;1197;-74
2022/01/14 07:48:04;;;;;;;;;;;;;;;4.61;100.00;102084.63;5031033;28;1305;-71
2022/01/14 07:50:30;;;;;;;;;;;;;;;4.61;100.00;102081.94;5030855;28;1752;-72
2022/01/14 07:52:56;;;;;;;;;;;;;;;4.62;100.00;102083.69;5030798;28;1300;-73
2022/01/14 07:55:23;;;;;;;;;;;;;;;4.64;100.00;102081.84;5029707;28;1285;-73
2022/01/14 07:57:49;;;;;;;;;;;;;;;4.61;100.00;102076.56;5030856;28;1383;-72
2022/01/14 08:00:17;;;;;;;;;;;;;;;4.61;100.00;102077.44;5030460;28;1458;-73
2022/01/14 08:02:45;;;;;;;;;;;;;;;4.64;100.00;102073.78;5029135;28;1989;-73
2022/01/14 08:05:12;;;;;;;;;;;;;;;4.63;100.00;102077.38;5031031;28;912;-72
2022/01/14 08:07:44;;;;;;;;;;;;;;;4.62;100.00;102073.84;5012751;28;1555;-73
2022/01/14 08:10:11;;;;;;;;;;;;;;;4.64;100.00;102076.47;5029563;28;1583;-73
2022/01/14 08:12:37;;;;;;;;;;;;;;;4.65;100.00;102080.88;5012326;28;1440;-75
2022/01/14 08:15:04;;;;;;;;;;;;;;;4.61;100.00;102076.56;5029301;28;1718;-71
2022/01/14 08:17:32;;;;;;;;;;;;;;;4.63;100.00;102078.25;5029581;28;1145;-71
2022/01/14 08:19:58;;;;;;;;;;;;;;;4.60;100.00;102083.75;5024946;28;1521;-72
2022/01/14 08:22:24;;;;;;;;;;;;;;;4.61;100.00;102087.31;5030476;28;1985;-70
2022/01/14 08:24:51;;;;;;;;;;;;;;;4.52;100.00;102085.84;5030695;28;1531;-71
2022/01/14 08:27:17;;;;;;;;;;;;;;;4.58;100.00;102090.97;5012550;28;1586;-70
2022/01/14 08:29:44;;;;;;;;;;;;;;;4.57;100.00;102091.03;5031065;28;1519;-72
2022/01/14 08:32:11;;;;;;;;;;;;;;;4.51;100.00;102086.75;5011838;28;1547;-72
2022/01/14 08:34:38;;;;;;;;;;;;;;;4.52;100.00;102091.22;5029940;28;1269;-74
2022/01/14 08:37:05;;;;;;;;;;;;;;;4.52;100.00;102102.84;5012755;28;1172;-72
2022/01/14 08:39:31;;;;;;;;;;;;;;;4.52;100.00;102096.59;5029883;28;1312;-71
2022/01/14 08:41:58;;;;;;;;;;;;;;;4.50;100.00;102076.91;5030223;28;1562;-72
2022/01/14 08:44:24;;;;;;;;;;;;;;;4.48;100.00;102087.75;5030404;28;1974;-73
2022/01/14 08:46:51;;;;;;;;;;;;;;;4.50;100.00;102076.91;5011681;28;967;-72
2022/01/14 08:49:17;;;;;;;;;;;;;;;4.50;100.00;102072.44;5011997;28;1336;-73
2022/01/14 08:51:45;;;;;;;;;;;;;;;4.46;100.00;102065.41;5012227;28;1567;-73
2022/01/14 08:54:11;;;;;;;;;;;;;;;4.46;100.00;102053.75;5011681;28;1284;-74
2022/01/14 08:56:37;;;;;;;;;;;;;;;4.46;100.00;102062.72;5029954;28;912;-73
2022/01/14 08:59:04;;;;;;;;;;;;;;;4.42;100.00;102061.03;5012250;28;1546;-72
2022/01/14 09:01:30;;;;;;;;;;;;;;;4.42;100.00;102058.34;5013661;28;1325;-71
2022/01/14 09:03:56;;;;;;;;;;;;;;;4.46;100.00;102077.97;5029545;28;1926;-72
2022/01/14 09:06:23;;;;;;;;;;;;;;;4.41;100.00;102056.63;5029237;28;1534;-72
2022/01/14 09:08:50;;;;;;;;;;;;;;;4.43;100.00;102064.63;5029715;28;1582;-73
2022/01/14 09:11:17;;;;;;;;;;;;;;;4.44;100.00;102067.25;5046159;23;3741;-73
2022/01/14 09:13:43;;;;;;;;;;;;;;;4.46;100.00;102068.09;5028661;28;1639;-73
2022/01/14 09:16:09;;;;;;;;;;;;;;;4.46;100.00;102084.25;5028465;28;1289;-74
2022/01/14 09:18:36;;;;;;;;;;;;;;;4.43;100.00;102072.69;5029797;28;954;-77
2022/01/14 09:21:02;;;;;;;;;;;;;;;4.47;100.00;102083.28;5029944;28;1073;-75
2022/01/14 09:23:29;;;;;;;;;;;;;;;4.49;100.00;102080.53;5029117;28;1892;-76
2022/01/14 09:25:57;;;;;;;;;;;;;;;4.50;100.00;102082.31;5029779;28;1023;-75
2022/01/14 09:28:23;;;;;;;;;;;;;;;4.45;100.00;102085.16;5011507;28;1324;-75
2022/01/14 09:30:49;;;;;;;;;;;;;;;4.45;100.00;102077.09;4995254;28;1232;-75
2022/01/14 09:33:17;;;;;;;;;;;;;;;4.46;100.00;102070.78;5015606;28;1500;-76
2022/01/14 09:35:44;;;;;;;;;;;;;;;4.46;100.00;102069.91;5016602;28;1414;-76
2022/01/14 09:38:10;;;;;;;;;;;;;;;4.43;100.00;102044.00;5029914;28;1292;-76
2022/01/14 09:40:37;;;;;;;;;;;;;;;4.45;100.00;102058.28;5030495;28;908;-76
2022/01/14 09:43:05;;;;;;;;;;;;;;;4.46;100.00;102048.38;5029256;28;1975;-74
2022/01/14 09:45:33;;;;;;;;;;;;;;;4.42;100.00;102058.34;5028930;28;1530;-76
2022/01/14 09:47:59;;;;;;;;;;;;;;;4.45;100.00;102060.06;5029659;28;1058;-76
2022/01/14 09:50:26;;;;;;;;;;;;;;;4.45;100.00;102060.97;5028904;28;1273;-75
2022/01/14 09:52:53;;;;;;;;;;;;;;;4.46;100.00;102062.72;5012422;28;1307;-76
2022/01/14 09:55:20;;;;;;;;;;;;;;;4.47;100.00;102056.41;5029824;28;1292;-76
2022/01/14 09:57:47;;;;;;;;;;;;;;;4.51;100.00;102063.41;5029198;28;1536;-77
2022/01/14 10:00:16;;;;;;;;;;;;;;;4.50;100.00;102059.00;5029259;28;1545;-76
2022/01/14 10:02:43;;;;;;;;;;;;;;;4.53;100.00;102063.41;5030035;28;1918;-74
2022/01/14 10:05:10;;;;;;;;;;;;;;;4.55;100.00;102071.41;5030168;28;976;-76
2022/01/14 10:07:37;;;;;;;;;;;;;;;4.55;100.00;102060.66;5023502;28;1308;-76
2022/01/14 10:10:21;;;;;;;;;;;;;;;4.55;100.00;102063.34;5029836;28;1495;-73
2022/01/14 10:12:47;;;;;;;;;;;;;;;4.56;100.00;102054.31;5029199;28;1581;-76
2022/01/14 10:15:15;;;;;;;;;;;;;;;4.56;100.00;102054.31;5011422;28;1483;-75
2022/01/14 10:17:42;;;;;;;;;;;;;;;4.62;100.00;102046.03;5030144;28;1487;-77
2022/01/14 10:20:10;;;;;;;;;;;;;;;4.59;100.00;102046.16;4998819;28;1577;-75
2022/01/14 10:22:40;;;;;;;;;;;;;;;4.62;100.00;102044.25;5014890;28;1910;-75
2022/01/14 10:25:07;;;;;;;;;;;;;;;4.64;100.00;102053.13;5033790;28;1002;-76
2022/01/14 10:27:35;;;;;;;;;;;;;;;4.63;100.00;102058.56;5014482;28;1516;-75
2022/01/14 10:30:12;;;;;;;;;;;;;;;4.63;100.00;102058.56;5027175;28;2204;-77
2022/01/14 10:32:41;;;;;;;;;;;;;;;4.64;100.00;102061.19;5015026;28;1388;-76
2022/01/14 10:35:09;;;;;;;;;;;;;;;4.63;100.00;102058.56;5032722;28;1697;-77
2022/01/14 10:37:36;;;;;;;;;;;;;;;4.67;100.00;102052.13;5032500;28;1510;-76
2022/01/14 10:40:04;;;;;;;;;;;;;;;4.71;100.00;102050.22;5015360;28;1507;-76
2022/01/14 10:42:33;;;;;;;;;;;;;;;4.74;100.00;102045.59;5032759;28;1368;-76
2022/01/14 10:45:18;;;;;;;;;;;;;;;4.75;100.00;102046.50;5032569;28;1918;-76
2022/01/14 10:47:52;;;;;;;;;;;;;;;4.80;100.00;102063.34;5033396;28;1031;-76
2022/01/14 10:50:18;;;;;;;;;;;;;;;4.80;100.00;102058.84;5032633;28;996;-76
2022/01/14 10:52:49;;;;;;;;;;;;;;;4.83;100.00;102056.03;5014890;28;1282;-76
2022/01/14 10:55:26;;;;;;;;;;;;;;;4.83;100.00;102064.09;5014726;28;1045;-74
2022/01/14 10:57:53;;;;;;;;;;;;;;;4.88;100.00;102068.44;5032015;28;1471;-76
2022/01/14 11:00:20;;;;;;;;;;;;;;;4.95;100.00;102060.09;5032837;28;1535;-78
2022/01/14 11:02:48;;;;;;;;;;;;;;;5.01;100.00;102042.84;5032866;28;1361;-76
2022/01/14 11:05:16;;;;;;;;;;;;;;;5.06;100.00;102040.84;5032282;28;1943;-76
2022/01/14 11:07:43;;;;;;;;;;;;;;;5.01;100.00;102035.66;5032060;28;1316;-76
2022/01/14 11:10:15;;;;;;;;;;;;;;;5.03;100.00;102051.75;5031951;28;1070;-76
2022/01/14 11:12:42;;;;;;;;;;;;;;;4.99;100.00;102053.66;5032269;28;1306;-73
2022/01/14 11:15:09;;;;;;;;;;;;;;;4.99;100.00;102047.41;5032366;28;1067;-74
2022/01/14 11:17:36;;;;;;;;;;;;;;;5.01;100.00;102037.44;5014307;28;995;-75
2022/01/14 11:20:03;;;;;;;;;;;;;;;5.01;100.00;102026.69;5031812;28;1356;-74
2022/01/14 11:25:15;;;;;;;;;;;;;;;4.98;100.00;102019.63;5014044;28;1910;-77
2022/01/14 11:27:42;;;;;;;;;;;;;;;5.01;100.00;102015.91;5031634;28;1292;-77
2022/01/14 11:30:12;;;;;;;;;;;;;;;5.03;100.00;102012.25;5031880;28;847;-75
2022/01/14 11:32:51;;;;;;;;;;;;;;;5.06;100.00;102013.94;5031514;28;1389;-76
2022/01/14 11:35:21;;;;;;;;;;;;;;;5.09;100.00;102019.22;5031805;28;986;-76
2022/01/14 11:37:49;;;;;;;;;;;;;;;5.12;100.00;102013.72;5031627;28;1289;-77
2022/01/14 11:40:15;;;;;;;;;;;;;;;5.14;100.00;102000.19;5031737;28;907;-81
2022/01/14 11:42:43;;;;;;;;;;;;;;;5.15;100.00;102010.91;5032215;28;1310;-78
2022/01/14 11:45:10;;;;;;;;;;;;;;;5.17;100.00;102016.22;5031540;28;1989;-76
2022/01/14 11:47:58;;;;;;;;;;;;;;;5.20;100.00;102008.91;5030880;28;1336;-74
2022/01/14 11:50:44;;;;;;;;;;;;;;;5.19;100.00;101999.06;5013603;28;939;-75
2022/01/14 11:53:25;;;;;;;;;;;;;;;5.23;100.00;101998.97;5013234;28;1369;-76
2022/01/14 11:55:53;;;;;;;;;;;;;;;5.16;100.00;101998.34;5030172;28;1710;-76
2022/01/14 11:58:22;;;;;;;;;;;;;;;5.15;100.00;101994.75;5031599;28;1034;-76
2022/01/14 12:00:48;;;;;;;;;;;;;;;5.17;100.00;101992.00;5014852;28;1050;-74
2022/01/14 12:03:26;;;;;;;;;;;;;;;5.15;100.00;101999.28;5031162;28;1910;-76
2022/01/14 12:05:53;;;;;;;;;;;;;;;5.14;100.00;101987.59;5006913;28;1811;-76
2022/01/14 12:08:20;;;;;;;;;;;;;;;5.15;100.00;101997.44;4995115;28;2683;-77
2022/01/14 12:10:48;;;;;;;;;;;;;;;5.11;100.00;101997.63;5013001;28;1519;-75
2022/01/14 12:13:27;;;;;;;;;;;;;;;5.12;100.00;102002.94;5013365;28;1349;-75
2022/01/14 12:15:59;;;;;;;;;;;;;;;5.11;100.00;102006.56;5012586;28;1523;-75
2022/01/14 12:18:44;;;;;;;;;;;;;;;5.14;100.00;102001.06;5009640;28;1500;-75
2022/01/14 12:21:10;;;;;;;;;;;;;;;5.15;100.00;101996.56;5031179;28;1331;-76
2022/01/14 12:23:36;;;;;;;;;;;;;;;5.16;100.00;102001.03;5030381;28;1977;-75
2022/01/14 12:26:13;;;;;;;;;;;;;;;5.14;100.00;101995.69;5029521;28;1502;-73
2022/01/14 12:28:42;;;;;;;;;;;;;;;5.13;100.00;101996.63;5030630;28;1522;-74
2022/01/14 12:31:08;;;;;;;;;;;;;;;5.14;100.00;101998.38;5030705;28;1346;-72
2022/01/14 12:33:41;;;;;;;;;;;;;;;5.14;100.00;101995.69;5030401;28;1562;-73
2022/01/14 12:36:11;;;;;;;;;;;;;;;5.15;100.00;101997.44;5016499;28;1269;-73
2022/01/14 12:38:39;;;;;;;;;;;;;;;5.16;100.00;101996.50;5033239;28;1405;-74
2022/01/14 12:41:05;;;;;;;;;;;;;;;5.22;100.00;101997.22;5030117;28;1518;-72
2022/01/14 12:43:31;;;;;;;;;;;;;;;5.24;100.00;101995.31;5013083;28;1910;-76
2022/01/14 12:46:13;;;;;;;;;;;;;;;5.25;100.00;101999.78;5028193;28;1506;-74
2022/01/14 12:48:49;;;;;;;;;;;;;;;5.22;100.00;101987.31;5015814;28;1487;-74
2022/01/14 12:51:16;;;;;;;;;;;;;;;5.24;100.00;101992.63;5030865;28;1357;-75
2022/01/14 12:53:47;;;;;;;;;;;;;;;5.23;100.00;101990.91;5013022;28;952;-73
2022/01/14 12:56:14;;;;;;;;;;;;;;;5.24;100.00;101989.94;5030447;28;860;-75
2022/01/14 12:58:51;;;;;;;;;;;;;;;5.23;100.00;101996.28;5012961;28;1133;-74
2022/01/14 13:01:19;;;;;;;;;;;;;;;5.21;100.00;101996.31;5012874;28;1266;-73
2022/01/14 13:03:46;;;;;;;;;;;;;;;5.24;100.00;101995.31;5030445;28;1914;-74
2022/01/14 13:06:12;;;;;;;;;;;;;;;5.24;100.00;102004.31;5030291;28;983;-74
2022/01/14 13:08:38;;;;;;;;;;;;;;;5.29;100.00;102007.69;5029986;28;1208;-74
2022/01/14 13:11:05;;;;;;;;;;;;;;;5.29;100.00;102004.09;5030026;28;1030;-74